Airfield :
LOGIN :

Register | Disclaimer

   EN    FR    IT 

 










Legend :    VFR   Marginal VFR   IFR   Intensive IFR   Very Intensive IFR
Visi :
Ceiling :
>= 8 km
>= 3000ft
5 to 8 km
1000 to 3000 ft
1500m to 5 km
500 to 1000 ft
800 to 1500m
200 to 500 ft
< 800m
< 200 ft
Symbols :   Thunderstorms  Fog  Heavy snow  Heavy precipitations  Wind > 20 kt
SIGMETs :     Misc.  Thunderstorms  Icing  Turbulence  Mountain Waves  Volcanic Ashes






- Airport Elevation : 94 ft
- IATA code : QLT


LIRL - Latina Casale (military)

CURRENT METAR :
  • 231555Z /////KT CAVOK 24/12 Q1017 RMK FEW FEW200 MON LIB NC VIS MIN 9999 WIND THR12 /////KT WIND THR30 24008KT BLU

EXPIRED METARs :
  • 231455Z /////KT 9999 FEW025 24/11 Q1017
  • 231355Z /////KT 9999 FEW025 25/10 Q1018
  • 231255Z /////KT 9999 FEW025 25/11 Q1018 RMK SCT MON LIB NC VIS MIN 9999 WIND THR12 /////KT WIND THR30 /////KT BLU
  • 231155Z /////KT 9999 FEW025 25/14 Q1018 RMK FEW MON LIB NC VIS MIN 9999 WIND THR12 /////KT WIND THR30 21009KT BLU
  • 231055Z /////KT 9999 SCT025 25/15 Q1018

TAF TAF LIRL
Valid from the 23 at 15:00 until the 24 at 00:00 UTC


231400Z 2315/2324 22010KT 9999 SCT020



MET'MAP, your aeronautical weather chart ! - Copyright ORBIFLY December 2007 - Disclaimer

ORBIFLY MET'MAP TEAM :

Programming & Development : Alexandra Zaïnal
Original concept : Baudouin d'Aumeries
Technical & hardware support : Manuel Goepfert
Assistance : Marc-Olivier Méhu




SOURCES & CREDITS :

   NOAA